Nearby METAR Reports

KLNK - Lincoln, Nebraska, USA
Distance from station: WNW 8mi, 13km
Updated: Tue, 01-Dec-2020 8:54pm CST
Clear
Clear
 Wind from calm
Wind: Calm
Temperature: 30°F , -1°C
Dew Point: 19°F , -7°C
Humidity: 64%
Barometer: 30.12 inHg , 1020 hPa
Clouds: Clear
Visibility: 10 miles , 16 km
2020/12/02 02:54 KLNK 020254Z 00000KT 10SM CLR M01/M07 A3012 RMK AO2 SLP214 T10061072 51021
KAHQ - Wahoo, Nebraska, USA
Distance from station: N 31mi, 49km
Updated: Tue, 01-Dec-2020 9:35pm CST
Clear
Clear
 Wind from calm
Wind: Calm
Temperature: 32°F , 0°C
Dew Point: 19°F , -7°C
Humidity: 60%
Barometer: 30.13 inHg , 1020.3 hPa
Clouds: Clear
Visibility: 10 miles , 16 km
2020/12/02 03:35 KAHQ 020335Z AUTO 00000KT 10SM CLR 00/M07 A3013 RMK AO2 T00001070
 
KBIE - Beatrice Municip, Nebraska, USA
Distance from station: S 36mi, 57km
Updated: Tue, 01-Dec-2020 9:35pm CST
Clear
Clear
 Wind from E
Wind: E 3 mph , 6 km/h
Temperature: 32°F , 0°C
Dew Point: 21°F , -6°C
Humidity: 64%
Barometer: 30.11 inHg , 1019.6 hPa
Clouds: Clear
Visibility: 10 miles , 16 km
2020/12/02 03:35 KBIE 020335Z AUTO 09003KT 10SM CLR 00/M06 A3011 RMK AO2 T00001056
KMLE - Omaha/Millard, Nebraska, USA
Distance from station: NE 39mi, 63km
Updated: Tue, 01-Dec-2020 9:35pm CST
Clear
Clear
 Wind from calm
Wind: Calm
Temperature: 32°F , 0°C
Dew Point: 19°F , -7°C
Humidity: 60%
Barometer: 30.13 inHg , 1020.3 hPa
Clouds: Clear
Visibility: 10 miles , 16 km
2020/12/02 03:35 KMLE 020335Z AUTO 00000KT 10SM CLR 00/M07 A3013 RMK AO2 T00021075
 
KPMV - Plattsmouth Muni, Nebraska, USA
Distance from station: ENE 39mi, 63km
Updated: Tue, 01-Dec-2020 9:35pm CST
Clear
Clear
 Wind from SE
Wind: SE 8 mph , 13 km/h
Temperature: 36°F , 2°C
Wind Chill: 30°F , -1°C
Dew Point: 19°F , -7°C
Humidity: 52%
Barometer: 30.13 inHg , 1020.3 hPa
Clouds: Clear
Visibility: 10 miles , 16 km
2020/12/02 03:35 KPMV 020335Z AUTO 13007KT 10SM CLR 02/M07 A3013 RMK AO2 T00161073
KAFK - Nebraska City, Nebraska, USA
Distance from station: ESE 43mi, 69km
Updated: Tue, 01-Dec-2020 9:35pm CST
Clear
Clear
 Wind from SE
Wind: SE 9 mph , 15 km/h
Temperature: 36°F , 2°C
Wind Chill: 29°F , -2°C
Dew Point: 21°F , -6°C
Humidity: 56%
Barometer: 30.13 inHg , 1020.3 hPa
Clouds: Clear
Visibility: 10 miles , 16 km
2020/12/02 03:35 KAFK 020335Z AUTO 14008KT 10SM CLR 02/M06 A3013 RMK AO2 T00201061
 
KOFF - Offutt Afb/Belle, Nebraska, USA
Distance from station: ENE 44mi, 70km
Updated: Tue, 01-Dec-2020 8:56pm CST
Clear
Clear
 Wind from calm
Wind: Calm
Temperature: 27°F , -3°C
Dew Point: 16°F , -9°C
Humidity: 64%
Barometer: 30.12 inHg , 1020 hPa
Clouds: Clear
Visibility: 10 miles , 16 km
2020/12/02 02:56 KOFF 020256Z AUTO 00000KT 10SM CLR M03/M09 A3012 RMK AO2 SLP218 T10261093 52022 $
KFET - Fremont Muni Arp, Nebraska, USA
Distance from station: N 46mi, 74km
Updated: Tue, 01-Dec-2020 9:35pm CST
Clear
Clear
 Wind from calm
Wind: Calm
Temperature: 28°F , -2°C
Dew Point: 21°F , -6°C
Humidity: 74%
Barometer: 30.13 inHg , 1020.3 hPa
Clouds: Clear
Visibility: 10 miles , 16 km
2020/12/02 03:35 KFET 020335Z AUTO 00000KT 10SM CLR M02/M06 A3013 RMK AO2 T10221065
 
KBTA - Blair Muni, Nebraska, USA
Distance from station: NNE 51mi, 82km
Updated: Tue, 01-Dec-2020 9:35pm CST
Clear
Clear
 Wind from ESE
Wind: ESE 6 mph , 9 km/h
Temperature: 36°F , 2°C
Wind Chill: 31°F , -1°C
Dew Point: 16°F , -9°C
Humidity: 44%
Barometer: 30.12 inHg , 1020 hPa
Clouds: Clear
Visibility: 10 miles , 16 km
2020/12/02 03:35 KBTA 020335Z AUTO 12005KT 10SM CLR 02/M09 A3012 RMK AO2 T00151090
KJYR - York, Nebraska, USA
Distance from station: W 52mi, 84km
Updated: Tue, 01-Dec-2020 9:35pm CST
Clear
Clear
 Wind from N
Wind: N 9 mph , 15 km/h
Temperature: 28°F , -2°C
Wind Chill: 19°F , -7°C
Dew Point: 23°F , -5°C
Humidity: 80%
Barometer: 30.10 inHg , 1019.3 hPa
Clouds: Clear
Visibility: 10 miles , 16 km
2020/12/02 03:35 KJYR 020335Z AUTO 36008KT 10SM CLR M02/M05 A3010 RMK AO2
 
KOMA - Omaha/Eppley, Nebraska, USA
Distance from station: NE 53mi, 85km
Updated: Tue, 01-Dec-2020 8:52pm CST
Mostly Cloudy
Mostly Cloudy
 Wind from SSE
Wind: SSE 6 mph , 9 km/h
Temperature: 34°F , 1°C
Wind Chill: 29°F , -2°C
Dew Point: 16°F , -9°C
Humidity: 48%
Barometer: 30.13 inHg , 1020.3 hPa
Clouds: Mostly Cloudy
Visibility: 10 miles , 16 km
Cloud details: Mostly Cloudy 25000 ft
2020/12/02 02:52 KOMA 020252Z 15005KT 10SM BKN250 01/M09 A3013 RMK AO2 SLP215 T00061089 51023
KOLU - Columbus Muni, Nebraska, USA
Distance from station: NW 58mi, 93km
Updated: Tue, 01-Dec-2020 8:56pm CST
Clear
Clear
 Wind from NW
Wind: NW 3 mph , 6 km/h
Temperature: 25°F , -4°C
Dew Point: 19°F , -7°C
Humidity: 80%
Barometer: 30.12 inHg , 1020 hPa
Clouds: Clear
Visibility: 10 miles , 16 km
2020/12/02 02:56 KOLU 020256Z AUTO 32003KT 10SM CLR M04/M07 A3012 RMK AO2 SLP221 T10391067 51023 FZRANO